Time;durP1;ratioP1;P1;durP2;ratioP2;P2;SDS_P1;SDS_P2;PMS_P1;PMS_P2;Temp;Humidity;BMP_temperature;BMP_pressure;BME280_temperature;BME280_humidity;BME280_pressure;Samples;Min_cycle;Max_cycle;Signal;HPM_P1;HPM_P2
2022/10/26 00:01:24;;;;;;;10.23;6.03;;;10.50;99.90;;;;;;5033825;28;20439;-81
2022/10/26 00:03:49;;;;;;;5.97;5.13;;;10.50;99.90;;;;;;5034131;28;20029;-82
2022/10/26 00:06:21;;;;;;;10.32;5.32;;;10.40;99.90;;;;;;5052088;28;20124;-82
2022/10/26 00:08:47;;;;;;;10.45;5.13;;;10.30;99.90;;;;;;5033902;28;20039;-82
2022/10/26 00:11:14;;;;;;;5.00;4.22;;;10.30;99.90;;;;;;5033813;28;20075;-83
2022/10/26 00:13:40;;;;;;;8.23;5.82;;;10.20;99.90;;;;;;5034005;28;20032;-82
2022/10/26 00:16:26;;;;;;;7.10;4.85;;;10.10;99.90;;;;;;5051915;28;20056;-83
2022/10/26 00:18:52;;;;;;;9.85;5.40;;;10.00;99.90;;;;;;5034430;28;20032;-82
2022/10/26 00:21:18;;;;;;;8.95;6.35;;;10.10;99.90;;;;;;5029560;28;20442;-82
2022/10/26 00:23:44;;;;;;;11.80;6.15;;;10.00;99.90;;;;;;5048460;28;20119;-82
2022/10/26 00:26:17;;;;;;;9.52;6.28;;;10.00;99.90;;;;;;5035935;28;20031;-84
2022/10/26 00:28:43;;;;;;;14.25;6.90;;;10.00;99.90;;;;;;5053685;28;20028;-83
2022/10/26 00:31:12;;;;;;;8.43;6.00;;;10.00;99.90;;;;;;5035730;28;20021;-83
2022/10/26 00:33:38;;;;;;;7.43;5.57;;;9.90;99.90;;;;;;5035685;28;20505;-83
2022/10/26 00:36:04;;;;;;;7.95;5.03;;;9.90;99.90;;;;;;5053988;28;20043;-82
2022/10/26 00:38:30;;;;;;;6.47;5.50;;;9.90;99.90;;;;;;5052829;28;20028;-83
2022/10/26 00:40:56;;;;;;;10.82;5.85;;;9.80;99.90;;;;;;5053660;28;20029;-82
2022/10/26 00:43:31;;;;;;;10.45;5.90;;;9.80;99.90;;;;;;5033541;28;20029;-83
2022/10/26 00:45:58;;;;;;;10.82;5.78;;;9.90;99.90;;;;;;5033808;28;20414;-82
2022/10/26 00:48:27;;;;;;;10.50;5.78;;;9.90;99.90;;;;;;5051738;28;20027;-82
2022/10/26 00:50:55;;;;;;;7.60;5.70;;;9.90;99.90;;;;;;5042729;28;20029;-83
2022/10/26 00:53:21;;;;;;;11.20;6.22;;;9.90;99.90;;;;;;5024909;28;20025;-82
2022/10/26 00:55:49;;;;;;;6.82;4.95;;;9.80;99.90;;;;;;5052267;28;20025;-82
2022/10/26 00:58:16;;;;;;;9.00;5.45;;;9.80;99.90;;;;;;5052519;28;20025;-82
2022/10/26 01:00:42;;;;;;;9.82;5.38;;;9.70;99.90;;;;;;5034307;28;20051;-82
2022/10/26 01:03:09;;;;;;;14.98;5.93;;;9.60;99.90;;;;;;5032776;28;20032;-82
2022/10/26 01:05:44;;;;;;;9.55;4.93;;;9.60;99.90;;;;;;5033479;28;20116;-81
2022/10/26 01:08:12;;;;;;;7.70;5.30;;;9.60;99.90;;;;;;5017316;28;20033;-82
2022/10/26 01:10:43;;;;;;;8.13;5.40;;;9.50;99.90;;;;;;5049067;28;20033;-82
2022/10/26 01:13:10;;;;;;;6.00;5.32;;;9.50;99.90;;;;;;5032663;28;20029;-81
2022/10/26 01:15:51;;;;;;;7.53;4.93;;;9.50;99.90;;;;;;5038179;28;20033;-84
2022/10/26 01:18:33;;;;;;;7.82;4.07;;;9.40;99.90;;;;;;5039843;28;20025;-84
2022/10/26 01:21:28;;;;;;;5.90;5.22;;;9.40;99.90;;;;;;5029323;28;20045;-84
2022/10/26 01:24:09;;;;;;;8.43;4.85;;;9.30;99.90;;;;;;5020625;28;20488;-85
2022/10/26 01:27:17;;;;;;;7.35;5.15;;;9.30;99.90;;;;;;5000436;28;20487;-83
2022/10/26 01:30:08;;;;;;;10.55;5.38;;;9.30;99.90;;;;;;5004531;28;20026;-83
2022/10/26 01:32:42;;;;;;;10.02;5.75;;;9.30;99.90;;;;;;5017570;28;20030;-85
2022/10/26 01:35:22;;;;;;;7.63;5.53;;;9.30;99.90;;;;;;4999599;28;20044;-84
2022/10/26 01:38:03;;;;;;;11.70;5.83;;;9.30;99.90;;;;;;4999893;28;20407;-84
2022/10/26 01:40:44;;;;;;;13.57;5.43;;;9.30;99.90;;;;;;5000775;28;20634;-84
2022/10/26 01:43:12;;;;;;;6.10;4.75;;;9.40;99.90;;;;;;5021357;28;20076;-85
2022/10/26 01:45:46;;;;;;;9.88;5.47;;;9.30;99.90;;;;;;5004332;28;20030;-84
2022/10/26 01:48:15;;;;;;;12.13;6.28;;;9.30;99.90;;;;;;5005680;28;20101;-83
2022/10/26 01:50:44;;;;;;;12.35;5.43;;;9.30;99.90;;;;;;5027172;28;20037;-84
2022/10/26 01:53:21;;;;;;;8.80;4.30;;;9.20;99.90;;;;;;5024644;28;20479;-84
2022/10/26 01:55:49;;;;;;;7.97;5.07;;;9.20;99.90;;;;;;5038264;28;20017;-84
2022/10/26 01:58:28;;;;;;;7.32;5.00;;;9.20;99.90;;;;;;5038940;28;20067;-84
2022/10/26 02:01:00;;;;;;;8.60;4.72;;;9.20;99.90;;;;;;5019396;28;20328;-83
2022/10/26 02:03:48;;;;;;;6.13;4.95;;;9.20;99.90;;;;;;5018638;28;20036;-83
2022/10/26 02:06:39;;;;;;;7.65;4.70;;;9.20;99.90;;;;;;5018576;28;20032;-83
2022/10/26 02:09:19;;;;;;;8.68;4.90;;;9.10;99.90;;;;;;5034680;28;20112;-83
2022/10/26 02:11:50;;;;;;;10.43;5.18;;;9.10;99.90;;;;;;5034015;28;20026;-83
2022/10/26 02:14:27;;;;;;;9.02;5.25;;;9.20;99.90;;;;;;5016670;28;20017;-84
2022/10/26 02:17:01;;;;;;;12.25;5.95;;;9.10;99.90;;;;;;5016119;28;20033;-83
2022/10/26 02:19:28;;;;;;;10.00;5.63;;;9.20;99.90;;;;;;5016655;28;20021;-84
2022/10/26 02:22:20;;;;;;;13.30;6.30;;;9.20;99.90;;;;;;5039057;28;20041;-84
2022/10/26 02:24:48;;;;;;;11.45;6.38;;;9.20;99.90;;;;;;5033997;28;20039;-83
2022/10/26 02:27:21;;;;;;;9.73;5.53;;;9.20;99.90;;;;;;5015376;28;20029;-84
2022/10/26 02:29:54;;;;;;;9.73;5.50;;;9.10;99.90;;;;;;5015042;28;20550;-82
2022/10/26 02:32:27;;;;;;;10.65;5.75;;;9.10;99.90;;;;;;5025446;28;20041;-82
2022/10/26 02:34:56;;;;;;;9.98;5.05;;;9.10;99.90;;;;;;5014502;28;20022;-82
2022/10/26 02:37:25;;;;;;;5.13;4.50;;;9.00;99.90;;;;;;5011149;28;20022;-82
2022/10/26 02:40:01;;;;;;;13.85;6.47;;;9.00;99.90;;;;;;5028518;28;20028;-83
2022/10/26 02:42:27;;;;;;;11.18;4.85;;;9.00;99.90;;;;;;5025316;28;20068;-83
2022/10/26 02:45:03;;;;;;;10.70;5.53;;;8.90;99.90;;;;;;5014013;28;20051;-82
2022/10/26 02:47:32;;;;;;;11.07;6.47;;;9.00;99.90;;;;;;5013418;28;20387;-82
2022/10/26 02:50:01;;;;;;;6.93;5.00;;;9.00;99.90;;;;;;5014048;28;20502;-83
2022/10/26 02:52:42;;;;;;;6.63;4.85;;;9.00;99.90;;;;;;5017800;28;20632;-82
2022/10/26 02:55:23;;;;;;;19.27;6.47;;;9.10;99.90;;;;;;5021588;28;20014;-83
2022/10/26 02:58:01;;;;;;;15.75;7.55;;;9.20;99.90;;;;;;5012633;28;20029;-82
2022/10/26 03:00:30;;;;;;;15.18;8.63;;;9.20;99.90;;;;;;5010458;28;20121;-82
2022/10/26 03:03:02;;;;;;;12.50;8.25;;;9.30;99.90;;;;;;5014455;28;20603;-83
2022/10/26 03:05:40;;;;;;;19.33;7.93;;;9.30;99.90;;;;;;4995890;28;20052;-83
2022/10/26 03:08:05;;;;;;;11.50;6.75;;;9.30;99.90;;;;;;5012089;28;20022;-83
2022/10/26 03:10:44;;;;;;;8.52;5.57;;;9.30;99.90;;;;;;5012038;28;20381;-82
2022/10/26 03:13:12;;;;;;;9.20;6.03;;;9.40;99.90;;;;;;5020621;28;20022;-83
2022/10/26 03:15:40;;;;;;;7.85;5.10;;;9.30;99.90;;;;;;5004770;28;20033;-82
2022/10/26 03:18:12;;;;;;;10.30;5.20;;;9.30;99.90;;;;;;5014808;28;20084;-82
2022/10/26 03:20:38;;;;;;;9.68;5.50;;;9.30;99.90;;;;;;5037340;28;20028;-82
2022/10/26 03:23:04;;;;;;;15.38;5.82;;;9.30;99.90;;;;;;5026096;28;20029;-83
2022/10/26 03:25:48;;;;;;;8.90;6.00;;;9.20;99.90;;;;;;5022236;28;20029;-83
2022/10/26 03:28:14;;;;;;;9.48;5.63;;;9.20;99.90;;;;;;5006297;28;20092;-82
2022/10/26 03:30:40;;;;;;;7.90;5.70;;;9.20;99.90;;;;;;5012425;28;20022;-83
2022/10/26 03:33:08;;;;;;;12.60;6.22;;;9.10;99.90;;;;;;5011907;28;20026;-82
2022/10/26 03:35:34;;;;;;;13.20;6.57;;;9.10;99.90;;;;;;5005992;28;20431;-82
2022/10/26 03:38:01;;;;;;;8.48;5.75;;;9.10;99.90;;;;;;5021903;28;20041;-82
2022/10/26 03:40:26;;;;;;;14.68;7.38;;;9.10;99.90;;;;;;4994483;28;20556;-82
2022/10/26 03:42:52;;;;;;;10.65;5.70;;;9.10;99.90;;;;;;5012065;28;20121;-82
2022/10/26 03:45:17;;;;;;;9.23;5.97;;;9.10;99.90;;;;;;5012332;28;20113;-83
2022/10/26 03:47:45;;;;;;;7.57;5.47;;;9.10;99.90;;;;;;4994755;28;20061;-83
2022/10/26 03:50:12;;;;;;;9.30;5.57;;;9.10;99.90;;;;;;4999601;28;20030;-83
2022/10/26 03:52:38;;;;;;;7.10;5.53;;;9.10;99.90;;;;;;5025146;28;20055;-82
2022/10/26 03:55:05;;;;;;;9.13;5.68;;;9.10;99.90;;;;;;5033710;28;20032;-84
2022/10/26 03:57:31;;;;;;;12.88;6.20;;;9.10;99.90;;;;;;5019866;28;20567;-84
2022/10/26 04:00:00;;;;;;;10.60;5.80;;;9.10;99.90;;;;;;5033818;28;20026;-79
2022/10/26 04:02:25;;;;;;;13.15;6.10;;;9.10;99.90;;;;;;5016227;28;20025;-82
2022/10/26 04:04:51;;;;;;;9.60;5.65;;;9.10;99.90;;;;;;5016447;28;20032;-83
2022/10/26 04:07:26;;;;;;;11.25;5.82;;;9.10;99.90;;;;;;5016508;28;20025;-83
2022/10/26 04:09:51;;;;;;;11.40;5.55;;;9.10;99.90;;;;;;5034710;28;20632;-83
2022/10/26 04:12:17;;;;;;;7.28;4.68;;;9.10;99.90;;;;;;5016673;28;20025;-83
2022/10/26 04:14:45;;;;;;;12.77;5.10;;;9.10;99.90;;;;;;5018831;28;20108;-82
2022/10/26 04:17:11;;;;;;;9.85;5.28;;;9.10;99.90;;;;;;5018066;28;20025;-82
2022/10/26 04:19:38;;;;;;;14.77;6.63;;;9.10;99.90;;;;;;5034262;28;20018;-82
2022/10/26 04:22:06;;;;;;;10.00;5.45;;;9.10;99.90;;;;;;5043800;28;20021;-85
2022/10/26 04:24:32;;;;;;;8.45;5.70;;;9.10;99.90;;;;;;5038452;28;20094;-82
2022/10/26 04:26:57;;;;;;;8.65;5.53;;;9.10;99.90;;;;;;5015142;28;20034;-84
2022/10/26 04:29:23;;;;;;;6.38;4.95;;;9.10;99.90;;;;;;4999372;28;20018;-82
2022/10/26 04:31:49;;;;;;;7.60;4.60;;;9.00;99.90;;;;;;5009323;28;20372;-81
2022/10/26 04:34:18;;;;;;;7.60;5.05;;;9.00;99.90;;;;;;5015263;28;20028;-84
2022/10/26 04:36:43;;;;;;;8.43;5.50;;;9.00;99.90;;;;;;5001371;28;20034;-83
2022/10/26 04:39:09;;;;;;;7.53;5.10;;;8.90;99.90;;;;;;5022600;28;20040;-82
2022/10/26 04:41:38;;;;;;;10.02;5.97;;;8.90;99.90;;;;;;5014263;28;20040;-83
2022/10/26 04:44:06;;;;;;;9.45;4.65;;;8.90;99.90;;;;;;5006565;28;20025;-82
2022/10/26 04:46:34;;;;;;;9.00;5.00;;;8.80;99.90;;;;;;5012794;28;20061;-82
2022/10/26 04:49:05;;;;;;;7.03;4.72;;;8.80;99.90;;;;;;4999325;28;20057;-83
2022/10/26 04:51:33;;;;;;;;;;;8.80;99.90;;;;;;5022365;28;20025;-82
2022/10/26 04:54:02;;;;;;;6.45;4.57;;;8.70;99.90;;;;;;5037016;28;20448;-82
2022/10/26 04:56:28;;;;;;;13.38;4.50;;;8.70;99.90;;;;;;5012630;28;20034;-81
2022/10/26 04:58:56;;;;;;;6.63;4.38;;;8.60;99.90;;;;;;5014471;28;20083;-82
2022/10/26 05:01:22;;;;;;;6.47;4.63;;;8.60;99.90;;;;;;5009956;28;20083;-82
2022/10/26 05:03:52;;;;;;;8.68;5.18;;;8.60;99.90;;;;;;5009400;28;20479;-82
2022/10/26 05:06:18;;;;;;;7.18;4.88;;;8.60;99.90;;;;;;5010072;28;20030;-82
2022/10/26 05:08:47;;;;;;;9.15;5.07;;;8.50;99.90;;;;;;5009846;28;20084;-82
2022/10/26 05:11:16;;;;;;;9.20;5.90;;;8.40;99.90;;;;;;5009783;28;20120;-82
2022/10/26 05:13:41;;;;;;;9.88;5.38;;;8.40;99.90;;;;;;5009780;28;20026;-82
2022/10/26 05:16:10;;;;;;;6.80;4.75;;;8.40;99.90;;;;;;5006263;28;20561;-82
2022/10/26 05:18:38;;;;;;;9.45;4.75;;;8.40;99.90;;;;;;5010722;28;20021;-83
2022/10/26 05:21:06;;;;;;;7.03;4.40;;;8.40;99.90;;;;;;5007948;28;20025;-82
2022/10/26 05:23:34;;;;;;;7.80;4.53;;;8.30;99.90;;;;;;5007593;28;20053;-82
2022/10/26 05:26:01;;;;;;;9.07;5.35;;;8.30;99.90;;;;;;5012465;28;20026;-83
2022/10/26 05:28:29;;;;;;;6.97;5.03;;;8.30;99.90;;;;;;5024630;28;20032;-84
2022/10/26 05:30:58;;;;;;;6.85;4.80;;;8.30;99.90;;;;;;5001794;28;20877;-83
2022/10/26 05:33:23;;;;;;;5.80;4.55;;;8.20;99.90;;;;;;5018007;28;20048;-83
2022/10/26 05:35:53;;;;;;;5.95;4.63;;;8.30;99.90;;;;;;5018466;28;20022;-84
2022/10/26 05:38:18;;;;;;;7.78;4.38;;;8.30;99.90;;;;;;5001700;28;20022;-85
2022/10/26 05:40:48;;;;;;;12.27;5.07;;;8.20;99.90;;;;;;5003936;28;20029;-85
2022/10/26 05:43:16;;;;;;;6.57;5.38;;;8.20;99.90;;;;;;5022603;28;20033;-83
2022/10/26 05:45:42;;;;;;;10.52;4.93;;;8.20;99.90;;;;;;5002427;28;20436;-81
2022/10/26 05:48:11;;;;;;;12.40;6.03;;;8.20;99.90;;;;;;5001344;28;20056;-81
2022/10/26 05:50:37;;;;;;;10.98;5.82;;;8.20;99.90;;;;;;5029334;28;20068;-82
2022/10/26 05:53:05;;;;;;;15.18;6.57;;;8.20;99.90;;;;;;5039798;28;20057;-82
2022/10/26 05:55:34;;;;;;;17.45;6.50;;;8.20;99.90;;;;;;5019019;28;20017;-82
2022/10/26 05:58:00;;;;;;;11.40;5.35;;;8.20;99.90;;;;;;5017781;28;20026;-81
2022/10/26 06:00:29;;;;;;;12.05;5.40;;;8.20;99.90;;;;;;5020090;28;20026;-81
2022/10/26 06:03:08;;;;;;;13.60;5.55;;;8.20;99.90;;;;;;5018912;28;20064;-80
2022/10/26 06:05:57;;;;;;;10.20;6.82;;;8.20;99.90;;;;;;5009154;28;20018;-80
2022/10/26 06:08:25;;;;;;;22.55;7.20;;;8.20;99.90;;;;;;5008434;28;20018;-80
2022/10/26 06:10:52;;;;;;;44.90;13.55;;;8.20;99.90;;;;;;5014573;28;20021;-80
2022/10/26 06:13:18;;;;;;;32.58;10.52;;;8.20;99.90;;;;;;5016616;28;20114;-80
2022/10/26 06:16:12;;;;;;;17.95;7.45;;;8.20;99.90;;;;;;5016578;28;20069;-81
2022/10/26 06:19:06;;;;;;;11.25;6.78;;;8.20;99.90;;;;;;5025684;28;20021;-81
2022/10/26 06:21:51;;;;;;;10.25;5.82;;;8.20;99.90;;;;;;5036749;28;20026;-81
2022/10/26 06:24:48;;;;;;;11.88;6.40;;;8.20;99.90;;;;;;5040591;28;20056;-81
2022/10/26 06:27:30;;;;;;;7.80;5.32;;;8.20;99.90;;;;;;5018632;28;20033;-81
2022/10/26 06:30:08;;;;;;;9.77;5.97;;;8.20;99.90;;;;;;5022028;28;20017;-81
2022/10/26 06:32:34;;;;;;;10.15;5.63;;;8.20;99.90;;;;;;5040038;28;20041;-82
2022/10/26 06:35:22;;;;;;;18.10;6.13;;;8.30;99.90;;;;;;5022649;28;20064;-82
2022/10/26 06:37:52;;;;;;;13.52;5.90;;;8.30;99.90;;;;;;5022500;28;20060;-83
2022/10/26 06:40:19;;;;;;;9.73;5.85;;;8.30;99.90;;;;;;5028383;28;20026;-83
2022/10/26 06:42:44;;;;;;;9.90;6.03;;;8.30;99.90;;;;;;5020089;28;20040;-83
2022/10/26 06:45:15;;;;;;;8.52;5.85;;;8.30;99.90;;;;;;5021928;28;20472;-82
2022/10/26 06:48:20;;;;;;;12.18;6.53;;;8.30;99.90;;;;;;5013502;28;20516;-82
2022/10/26 06:51:19;;;;;;;;;;;;;;;;;;;;;
2022/10/26 06:53:55;;;;;;;12.10;6.35;;;8.40;99.90;;;;;;5035470;28;20338;-85
2022/10/26 06:56:23;;;;;;;12.00;6.57;;;8.40;99.90;;;;;;5027966;28;20026;-83
2022/10/26 06:58:51;;;;;;;11.88;6.90;;;8.40;99.90;;;;;;4995420;28;20487;-85
2022/10/26 07:01:17;;;;;;;15.70;7.25;;;8.40;99.90;;;;;;4995968;28;20076;-84
2022/10/26 07:03:43;;;;;;;17.48;6.60;;;8.40;99.90;;;;;;4995487;28;20479;-84
2022/10/26 07:06:11;;;;;;;10.63;6.20;;;8.40;99.90;;;;;;4996065;28;20164;-84
2022/10/26 07:08:39;;;;;;;14.52;6.32;;;8.50;99.90;;;;;;5013056;28;20487;-84
2022/10/26 07:11:08;;;;;;;11.27;6.47;;;8.50;99.90;;;;;;5015031;28;20102;-84
2022/10/26 07:13:33;;;;;;;8.93;5.88;;;8.50;99.90;;;;;;5012254;28;20104;-83
2022/10/26 07:16:02;;;;;;;11.07;6.20;;;8.60;99.90;;;;;;5012437;28;20196;-85
2022/10/26 07:18:28;;;;;;;11.30;6.47;;;8.60;99.90;;;;;;4996594;28;20029;-84
2022/10/26 07:20:53;;;;;;;9.82;6.40;;;8.70;99.90;;;;;;5013118;28;20508;-84
2022/10/26 07:23:22;;;;;;;12.13;7.38;;;8.70;99.90;;;;;;5026164;28;20417;-84
2022/10/26 07:25:48;;;;;;;17.98;7.13;;;8.80;99.90;;;;;;5035286;28;20508;-85
2022/10/26 07:28:16;;;;;;;12.88;6.45;;;8.90;99.90;;;;;;5052792;28;20052;-84
2022/10/26 07:30:42;;;;;;;10.35;6.32;;;8.90;99.90;;;;;;5035281;28;20581;-84
2022/10/26 07:33:12;;;;;;;9.68;6.25;;;9.00;99.90;;;;;;5052219;28;20041;-84
2022/10/26 07:35:38;;;;;;;10.73;5.75;;;9.10;99.90;;;;;;5035371;28;20025;-84
2022/10/26 07:38:07;;;;;;;12.48;7.15;;;9.10;99.90;;;;;;5034890;28;20032;-84
2022/10/26 07:40:35;;;;;;;9.30;6.50;;;9.10;99.90;;;;;;5034849;28;20025;-85
2022/10/26 07:43:01;;;;;;;10.35;6.28;;;9.20;99.90;;;;;;5035476;28;20052;-84
2022/10/26 07:45:31;;;;;;;6.80;5.20;;;9.30;99.90;;;;;;5035560;28;20025;-84
2022/10/26 07:47:57;;;;;;;9.68;6.30;;;9.30;99.90;;;;;;5035588;28;20585;-84
2022/10/26 07:50:24;;;;;;;8.23;6.10;;;9.40;99.90;;;;;;5051195;28;20365;-84
2022/10/26 07:52:50;;;;;;;8.65;5.72;;;9.60;99.90;;;;;;5036432;28;20032;-84
2022/10/26 07:55:15;;;;;;;11.70;6.65;;;9.60;99.90;;;;;;5014447;28;20022;-84
2022/10/26 07:57:48;;;;;;;8.75;6.03;;;9.70;99.90;;;;;;5016293;28;20505;-84
2022/10/26 08:00:17;;;;;;;8.15;5.55;;;9.80;99.90;;;;;;5017447;28;20068;-86
2022/10/26 08:02:43;;;;;;;70.05;40.53;;;9.90;99.90;;;;;;5033870;28;20037;-86
2022/10/26 08:05:09;;;;;;;80.00;48.22;;;10.00;99.90;;;;;;5033567;28;20033;-80
2022/10/26 08:07:40;;;;;;;38.50;23.55;;;10.10;99.90;;;;;;4997046;28;20042;-80
2022/10/26 08:10:06;;;;;;;14.40;9.07;;;10.20;99.90;;;;;;5013187;28;20486;-79
2022/10/26 08:12:35;;;;;;;10.27;7.03;;;10.30;99.90;;;;;;5031194;28;20044;-80
2022/10/26 08:15:03;;;;;;;11.63;5.80;;;10.40;99.90;;;;;;5031130;28;20022;-80
2022/10/26 08:17:29;;;;;;;13.30;5.93;;;10.50;99.90;;;;;;5031558;28;20036;-80
2022/10/26 08:19:55;;;;;;;9.43;4.80;;;10.70;99.90;;;;;;5013194;28;20474;-79
2022/10/26 08:22:20;;;;;;;13.52;5.18;;;10.90;99.90;;;;;;5028300;28;20053;-80
2022/10/26 08:24:46;;;;;;;10.95;5.65;;;11.10;99.90;;;;;;5029741;28;20447;-80
2022/10/26 08:27:13;;;;;;;5.47;4.20;;;11.30;99.90;;;;;;5010183;28;20026;-80
2022/10/26 08:29:40;;;;;;;10.65;4.00;;;11.50;99.90;;;;;;4993904;28;20022;-80
2022/10/26 08:32:06;;;;;;;8.63;3.63;;;11.70;99.90;;;;;;4992625;28;20053;-80
2022/10/26 08:34:32;;;;;;;11.75;3.97;;;11.80;99.90;;;;;;4994844;28;20022;-80
2022/10/26 08:36:58;;;;;;;6.93;3.03;;;12.00;99.90;;;;;;4994366;28;20105;-81
2022/10/26 08:39:26;;;;;;;6.50;3.28;;;12.20;99.90;;;;;;5011974;28;20080;-81
2022/10/26 08:42:00;;;;;;;9.45;2.92;;;12.40;99.90;;;;;;4993589;28;20116;-81
2022/10/26 08:44:48;;;;;;;7.72;2.60;;;12.60;99.90;;;;;;4994607;28;20125;-81
2022/10/26 08:47:23;;;;;;;5.53;2.97;;;12.90;99.90;;;;;;4994625;28;20029;-82
2022/10/26 08:50:01;;;;;;;4.22;2.70;;;13.00;99.90;;;;;;4994889;28;20427;-81
2022/10/26 08:52:42;;;;;;;9.80;2.60;;;13.30;99.90;;;;;;5003012;28;20056;-82
2022/10/26 08:55:17;;;;;;;9.02;2.80;;;13.40;99.90;;;;;;5010222;28;20030;-81
2022/10/26 08:57:48;;;;;;;5.13;2.20;;;13.60;99.90;;;;;;5011425;28;20382;-81
2022/10/26 09:00:20;;;;;;;6.30;2.03;;;13.70;99.90;;;;;;4993939;28;20022;-81
2022/10/26 09:02:50;;;;;;;5.80;1.90;;;13.90;99.90;;;;;;4993831;28;20060;-81
2022/10/26 09:05:20;;;;;;;8.47;2.03;;;14.10;99.90;;;;;;4994417;28;20030;-81
2022/10/26 09:08:22;;;;;;;6.63;2.30;;;14.30;99.90;;;;;;4994381;28;20069;-81
2022/10/26 09:10:57;;;;;;;4.03;1.77;;;14.60;99.90;;;;;;4993797;28;20044;-81
2022/10/26 09:13:53;;;;;;;3.78;1.58;;;14.90;99.90;;;;;;5011582;28;20085;-82
2022/10/26 09:16:39;;;;;;;2.50;1.30;;;16.20;99.90;;;;;;4975740;28;20095;-82
2022/10/26 09:19:41;;;;;;;8.35;1.73;;;18.50;99.90;;;;;;4993489;28;20030;-82
2022/10/26 09:22:14;;;;;;;6.78;2.10;;;20.90;99.90;;;;;;5034978;28;20108;-82
2022/10/26 09:24:50;;;;;;;3.95;1.55;;;23.00;99.40;;;;;;5033611;28;20493;-82
2022/10/26 09:27:28;;;;;;;2.90;1.50;;;24.60;92.50;;;;;;5033777;28;20036;-81
2022/10/26 09:29:58;;;;;;;5.85;1.30;;;25.10;91.10;;;;;;5052158;28;20490;-82
2022/10/26 09:32:35;;;;;;;2.90;1.27;;;26.30;85.90;;;;;;5037184;28;20024;-81
2022/10/26 09:35:19;;;;;;;5.30;1.50;;;25.50;86.50;;;;;;5039205;28;20028;-82
2022/10/26 09:38:07;;;;;;;3.50;1.58;;;24.70;86.70;;;;;;5021142;28;20520;-83
2022/10/26 09:40:51;;;;;;;5.30;1.73;;;24.30;86.70;;;;;;5038174;28;20021;-82
2022/10/26 09:43:26;;;;;;;6.95;2.10;;;23.70;88.90;;;;;;5038146;28;20036;-82
2022/10/26 09:46:01;;;;;;;6.65;1.85;;;22.50;90.90;;;;;;5038470;28;20029;-81
2022/10/26 09:48:47;;;;;;;10.32;1.92;;;22.20;91.50;;;;;;5026144;28;20044;-82
2022/10/26 09:51:19;;;;;;;4.38;1.90;;;21.30;92.60;;;;;;5025198;28;20032;-81
2022/10/26 09:53:48;;;;;;;5.70;2.10;;;20.60;94.70;;;;;;5031669;28;20389;-81
2022/10/26 09:56:15;;;;;;;9.40;1.65;;;20.10;95.70;;;;;;5021013;28;20029;-83
2022/10/26 09:58:52;;;;;;;5.45;1.67;;;19.90;96.50;;;;;;5041536;28;20061;-83
2022/10/26 10:01:34;;;;;;;5.22;1.58;;;20.00;96.50;;;;;;5015149;28;20053;-83
2022/10/26 10:04:16;;;;;;;4.50;1.77;;;19.60;96.90;;;;;;5017685;28;20021;-83
2022/10/26 10:06:43;;;;;;;5.10;2.05;;;19.30;97.90;;;;;;5018407;28;20032;-83
2022/10/26 10:09:14;;;;;;;5.93;1.50;;;19.10;98.90;;;;;;5018256;28;20085;-84
2022/10/26 10:11:48;;;;;;;3.92;1.65;;;18.90;99.30;;;;;;5017662;28;20391;-83
2022/10/26 10:14:20;;;;;;;3.45;1.60;;;18.90;99.90;;;;;;5016855;28;20022;-84
2022/10/26 10:17:01;;;;;;;4.07;1.45;;;18.80;99.90;;;;;;5027108;28;20545;-83
2022/10/26 10:19:32;;;;;;;3.38;1.60;;;18.90;99.90;;;;;;5026915;28;20075;-83
2022/10/26 10:22:23;;;;;;;8.05;2.33;;;18.50;99.90;;;;;;5018062;28;20491;-82
2022/10/26 10:25:01;;;;;;;3.17;1.33;;;18.30;99.90;;;;;;4996655;28;20050;-83
2022/10/26 10:27:30;;;;;;;9.82;2.13;;;18.20;99.90;;;;;;5017529;28;20033;-82
2022/10/26 10:29:57;;;;;;;3.33;1.80;;;18.00;99.90;;;;;;5007534;28;20061;-82
2022/10/26 10:32:30;;;;;;;3.90;1.85;;;18.00;99.90;;;;;;5002699;28;20357;-83
2022/10/26 10:34:58;;;;;;;6.15;1.67;;;18.10;99.90;;;;;;5023023;28;20572;-83
2022/10/26 10:37:30;;;;;;;7.53;1.83;;;18.30;99.90;;;;;;5014085;28;20018;-82
2022/10/26 10:40:03;;;;;;;5.88;1.80;;;18.40;99.90;;;;;;5004393;28;20568;-83
2022/10/26 10:42:36;;;;;;;6.55;2.20;;;18.40;99.90;;;;;;5014925;28;20050;-82
2022/10/26 10:45:03;;;;;;;5.55;2.50;;;18.20;99.90;;;;;;5024648;28;20104;-82
2022/10/26 10:47:31;;;;;;;4.93;2.72;;;18.10;99.90;;;;;;5012077;28;20088;-83
2022/10/26 10:49:57;;;;;;;3.92;1.90;;;18.10;99.90;;;;;;5015329;28;20029;-82
2022/10/26 10:52:30;;;;;;;4.05;1.90;;;18.20;99.90;;;;;;5017769;28;20050;-82
2022/10/26 10:55:05;;;;;;;3.85;1.70;;;18.30;99.90;;;;;;5018377;28;20044;-82
2022/10/26 10:57:40;;;;;;;7.07;2.00;;;18.40;99.90;;;;;;5021270;28;20436;-83
2022/10/26 11:00:08;;;;;;;4.32;1.35;;;18.70;99.90;;;;;;5003400;28;20116;-83
2022/10/26 11:02:59;;;;;;;3.10;1.70;;;19.00;99.90;;;;;;5019572;28;20034;-84
2022/10/26 11:05:35;;;;;;;4.35;1.63;;;19.50;99.90;;;;;;5020379;28;20518;-81
2022/10/26 11:08:11;;;;;;;5.22;2.03;;;20.00;99.90;;;;;;5010431;28;20026;-82
2022/10/26 11:11:05;;;;;;;6.55;1.95;;;20.40;99.90;;;;;;5023115;28;20136;-83
2022/10/26 11:13:45;;;;;;;3.90;1.40;;;20.60;99.90;;;;;;5009040;28;20506;-83
2022/10/26 11:16:19;;;;;;;4.50;1.80;;;21.00;99.90;;;;;;5028821;28;20516;-83
2022/10/26 11:18:51;;;;;;;7.50;2.30;;;21.10;99.90;;;;;;4997283;28;20034;-84
2022/10/26 11:21:30;;;;;;;4.40;1.60;;;21.70;99.90;;;;;;5035264;28;20034;-84
2022/10/26 11:24:30;;;;;;;9.25;3.40;;;22.80;99.90;;;;;;5051481;28;20033;-83
2022/10/26 11:27:16;;;;;;;3.13;1.88;;;24.60;97.50;;;;;;5038085;28;20035;-85
2022/10/26 11:29:46;;;;;;;6.43;1.30;;;26.40;93.90;;;;;;5036498;28;20056;-84
2022/10/26 11:32:21;;;;;;;;;;;27.40;91.40;;;;;;5038078;28;20024;-85
2022/10/26 11:35:12;;;;;;;5.15;1.63;;;28.40;87.40;;;;;;5039852;28;19958;-86
2022/10/26 11:37:51;;;;;;;4.63;2.10;;;28.50;83.60;;;;;;5057207;28;20021;-85
2022/10/26 11:40:38;;;;;;;6.47;1.83;;;27.80;82.50;;;;;;5039628;28;20032;-85
2022/10/26 11:43:29;;;;;;;4.70;2.22;;;26.90;86.20;;;;;;5055429;28;20500;-86
2022/10/26 11:46:35;;;;;;;3.33;1.92;;;26.10;86.40;;;;;;5036830;28;20044;-85
2022/10/26 11:49:15;;;;;;;7.05;1.98;;;25.30;87.10;;;;;;5036215;28;20032;-85
2022/10/26 11:51:54;;;;;;;3.45;1.67;;;24.70;88.10;;;;;;5045680;28;20536;-84
2022/10/26 11:54:46;;;;;;;2.70;1.80;;;23.90;91.00;;;;;;5016623;28;20052;-84
2022/10/26 11:57:14;;;;;;;5.45;2.08;;;23.50;92.10;;;;;;5018771;28;20462;-83
2022/10/26 11:59:52;;;;;;;3.75;1.90;;;23.10;92.90;;;;;;5034042;28;20482;-83
2022/10/26 12:02:24;;;;;;;5.10;1.85;;;22.90;93.50;;;;;;5000576;28;20045;-83
2022/10/26 12:05:04;;;;;;;4.53;1.75;;;22.60;93.50;;;;;;5017343;28;20033;-85
2022/10/26 12:07:34;;;;;;;2.97;1.48;;;22.30;93.90;;;;;;5020902;28;20033;-85
2022/10/26 12:10:02;;;;;;;4.80;2.00;;;22.00;94.80;;;;;;5017681;28;20034;-85
2022/10/26 12:12:37;;;;;;;2.78;1.77;;;21.80;95.30;;;;;;5012468;28;20033;-84
2022/10/26 12:15:21;;;;;;;3.78;1.92;;;21.50;95.20;;;;;;5014828;28;20406;-82
2022/10/26 12:18:08;;;;;;;2.60;1.70;;;21.30;95.90;;;;;;5014465;28;20097;-81
2022/10/26 12:20:53;;;;;;;3.83;1.77;;;21.10;96.80;;;;;;5019401;28;20045;-82
2022/10/26 12:23:18;;;;;;;5.35;1.90;;;21.00;97.20;;;;;;5024739;28;20044;-81
2022/10/26 12:25:44;;;;;;;5.40;1.80;;;20.70;97.10;;;;;;5032507;28;20428;-82
2022/10/26 12:28:35;;;;;;;5.30;1.88;;;20.60;97.50;;;;;;5049431;28;20333;-82
2022/10/26 12:31:55;;;;;;;3.33;2.22;;;20.50;98.30;;;;;;5032623;28;20064;-82
2022/10/26 12:34:28;;;;;;;3.05;2.03;;;20.50;98.00;;;;;;5032377;28;20479;-81
2022/10/26 12:36:54;;;;;;;6.38;2.05;;;20.50;98.30;;;;;;5032181;28;20060;-82
2022/10/26 12:39:35;;;;;;;5.00;1.80;;;20.30;98.70;;;;;;5051097;28;20075;-81
2022/10/26 12:42:04;;;;;;;5.38;1.45;;;20.10;98.60;;;;;;5051157;28;20025;-82
2022/10/26 12:44:34;;;;;;;5.35;1.83;;;20.10;98.10;;;;;;5034058;28;20032;-82
2022/10/26 12:47:07;;;;;;;3.88;1.83;;;20.00;99.30;;;;;;5008535;28;20168;-83
2022/10/26 12:50:09;;;;;;;4.20;1.85;;;20.20;99.60;;;;;;5001548;28;20026;-83
2022/10/26 12:52:44;;;;;;;3.95;1.58;;;20.50;99.00;;;;;;5018797;28;20106;-81
2022/10/26 12:55:16;;;;;;;5.70;1.40;;;20.70;99.20;;;;;;5013576;28;20022;-81
2022/10/26 12:58:20;;;;;;;3.75;1.73;;;20.70;98.30;;;;;;5031545;28;20056;-83
2022/10/26 13:01:29;;;;;;;4.80;1.80;;;20.80;97.90;;;;;;5013585;28;20116;-81
2022/10/26 13:04:17;;;;;;;5.05;2.03;;;21.10;97.50;;;;;;5013696;28;20049;-82
2022/10/26 13:07:05;;;;;;;7.10;1.55;;;21.50;97.60;;;;;;5014252;28;20622;-82
2022/10/26 13:09:32;;;;;;;6.75;1.88;;;21.60;97.50;;;;;;5013145;28;20514;-81
2022/10/26 13:12:01;;;;;;;6.20;1.60;;;21.50;95.40;;;;;;5030674;28;20028;-81
2022/10/26 13:14:35;;;;;;;5.45;1.73;;;21.40;95.90;;;;;;5013460;28;20036;-83
2022/10/26 13:17:03;;;;;;;4.72;1.63;;;21.40;96.30;;;;;;5013196;28;20029;-83
2022/10/26 13:19:47;;;;;;;4.38;1.75;;;21.20;96.20;;;;;;5013678;28;20026;-82
2022/10/26 13:22:18;;;;;;;3.35;1.40;;;21.00;96.40;;;;;;5022616;28;20508;-82